sensor_id;sensor_type;location;lat;lon;timestamp;P1;durP1;ratioP1;P2;durP2;ratioP2
61617;SDS011;47518;51.776;9.370;2023-03-15T00:02:07;6.57;;;3.80;;
61617;SDS011;47518;51.776;9.370;2023-03-15T00:04:38;13.10;;;3.40;;
61617;SDS011;47518;51.776;9.370;2023-03-15T00:07:23;8.77;;;3.50;;
61617;SDS011;47518;51.776;9.370;2023-03-15T00:09:54;9.35;;;3.90;;
61617;SDS011;47518;51.776;9.370;2023-03-15T00:12:20;11.13;;;3.97;;
61617;SDS011;47518;51.776;9.370;2023-03-15T00:14:47;9.48;;;3.35;;
61617;SDS011;47518;51.776;9.370;2023-03-15T00:17:21;9.35;;;3.22;;
61617;SDS011;47518;51.776;9.370;2023-03-15T00:20:05;8.40;;;3.30;;
61617;SDS011;47518;51.776;9.370;2023-03-15T00:25:18;8.00;;;2.80;;
61617;SDS011;47518;51.776;9.370;2023-03-15T00:27:57;6.22;;;2.70;;
61617;SDS011;47518;51.776;9.370;2023-03-15T00:30:26;6.78;;;3.35;;
61617;SDS011;47518;51.776;9.370;2023-03-15T00:33:03;7.25;;;3.15;;
61617;SDS011;47518;51.776;9.370;2023-03-15T00:35:36;7.13;;;2.92;;
61617;SDS011;47518;51.776;9.370;2023-03-15T00:38:25;7.55;;;3.17;;
61617;SDS011;47518;51.776;9.370;2023-03-15T00:41:03;7.55;;;2.65;;
61617;SDS011;47518;51.776;9.370;2023-03-15T00:43:48;7.35;;;2.65;;
61617;SDS011;47518;51.776;9.370;2023-03-15T00:46:20;9.40;;;3.03;;
61617;SDS011;47518;51.776;9.370;2023-03-15T00:51:22;10.07;;;3.08;;
61617;SDS011;47518;51.776;9.370;2023-03-15T00:53:57;8.43;;;3.45;;
61617;SDS011;47518;51.776;9.370;2023-03-15T00:56:26;12.55;;;3.75;;
61617;SDS011;47518;51.776;9.370;2023-03-15T00:58:54;10.40;;;3.00;;
61617;SDS011;47518;51.776;9.370;2023-03-15T01:01:25;11.88;;;3.30;;
61617;SDS011;47518;51.776;9.370;2023-03-15T01:03:58;9.15;;;3.75;;
61617;SDS011;47518;51.776;9.370;2023-03-15T01:06:37;9.77;;;2.90;;
61617;SDS011;47518;51.776;9.370;2023-03-15T01:09:40;9.82;;;3.72;;
61617;SDS011;47518;51.776;9.370;2023-03-15T01:12:06;12.32;;;3.83;;
61617;SDS011;47518;51.776;9.370;2023-03-15T01:14:35;14.55;;;4.47;;
61617;SDS011;47518;51.776;9.370;2023-03-15T01:17:03;10.45;;;3.80;;
61617;SDS011;47518;51.776;9.370;2023-03-15T01:19:33;10.93;;;3.90;;
61617;SDS011;47518;51.776;9.370;2023-03-15T01:22:00;11.15;;;3.65;;
61617;SDS011;47518;51.776;9.370;2023-03-15T01:24:27;11.38;;;3.58;;
61617;SDS011;47518;51.776;9.370;2023-03-15T01:27:02;8.57;;;3.33;;
61617;SDS011;47518;51.776;9.370;2023-03-15T01:29:39;7.75;;;3.42;;
61617;SDS011;47518;51.776;9.370;2023-03-15T01:32:04;7.50;;;3.30;;
61617;SDS011;47518;51.776;9.370;2023-03-15T01:34:33;9.38;;;3.67;;
61617;SDS011;47518;51.776;9.370;2023-03-15T01:37:02;7.03;;;3.15;;
61617;SDS011;47518;51.776;9.370;2023-03-15T01:39:33;12.75;;;3.45;;
61617;SDS011;47518;51.776;9.370;2023-03-15T01:41:58;8.02;;;3.38;;
61617;SDS011;47518;51.776;9.370;2023-03-15T01:44:44;10.18;;;3.40;;
61617;SDS011;47518;51.776;9.370;2023-03-15T01:47:27;5.03;;;3.28;;
61617;SDS011;47518;51.776;9.370;2023-03-15T01:49:54;5.93;;;3.15;;
61617;SDS011;47518;51.776;9.370;2023-03-15T01:52:35;9.00;;;3.40;;
61617;SDS011;47518;51.776;9.370;2023-03-15T01:55:06;8.95;;;3.17;;
61617;SDS011;47518;51.776;9.370;2023-03-15T01:57:38;10.25;;;2.97;;
61617;SDS011;47518;51.776;9.370;2023-03-15T02:02:39;11.02;;;2.80;;
61617;SDS011;47518;51.776;9.370;2023-03-15T02:05:10;7.90;;;2.90;;
61617;SDS011;47518;51.776;9.370;2023-03-15T02:07:40;8.77;;;2.80;;
61617;SDS011;47518;51.776;9.370;2023-03-15T02:10:15;7.00;;;2.72;;
61617;SDS011;47518;51.776;9.370;2023-03-15T02:12:49;7.43;;;2.70;;
61617;SDS011;47518;51.776;9.370;2023-03-15T02:15:17;6.63;;;2.97;;
61617;SDS011;47518;51.776;9.370;2023-03-15T02:17:43;9.55;;;2.60;;
61617;SDS011;47518;51.776;9.370;2023-03-15T02:23:03;7.93;;;2.70;;
61617;SDS011;47518;51.776;9.370;2023-03-15T02:38:38;7.78;;;3.35;;
61617;SDS011;47518;51.776;9.370;2023-03-15T02:41:05;7.70;;;2.90;;
61617;SDS011;47518;51.776;9.370;2023-03-15T02:43:31;5.95;;;2.72;;
61617;SDS011;47518;51.776;9.370;2023-03-15T02:45:58;4.20;;;2.65;;
61617;SDS011;47518;51.776;9.370;2023-03-15T02:48:31;4.57;;;2.78;;
61617;SDS011;47518;51.776;9.370;2023-03-15T02:50:58;4.57;;;2.80;;
61617;SDS011;47518;51.776;9.370;2023-03-15T02:53:23;4.65;;;2.85;;
61617;SDS011;47518;51.776;9.370;2023-03-15T02:55:49;5.65;;;2.70;;
61617;SDS011;47518;51.776;9.370;2023-03-15T02:58:15;4.75;;;2.85;;
61617;SDS011;47518;51.776;9.370;2023-03-15T03:00:41;3.78;;;2.70;;
61617;SDS011;47518;51.776;9.370;2023-03-15T03:03:06;3.22;;;2.70;;
61617;SDS011;47518;51.776;9.370;2023-03-15T03:05:33;4.18;;;2.83;;
61617;SDS011;47518;51.776;9.370;2023-03-15T03:07:58;4.22;;;2.80;;
61617;SDS011;47518;51.776;9.370;2023-03-15T03:10:23;4.38;;;2.60;;
61617;SDS011;47518;51.776;9.370;2023-03-15T03:12:52;4.53;;;2.50;;
61617;SDS011;47518;51.776;9.370;2023-03-15T03:15:18;5.07;;;2.92;;
61617;SDS011;47518;51.776;9.370;2023-03-15T03:17:43;6.95;;;3.45;;
61617;SDS011;47518;51.776;9.370;2023-03-15T03:20:09;8.13;;;3.45;;
61617;SDS011;47518;51.776;9.370;2023-03-15T03:22:37;8.00;;;3.72;;
61617;SDS011;47518;51.776;9.370;2023-03-15T03:25:04;8.30;;;3.85;;
61617;SDS011;47518;51.776;9.370;2023-03-15T03:27:34;5.18;;;3.28;;
61617;SDS011;47518;51.776;9.370;2023-03-15T03:30:11;5.88;;;3.40;;
61617;SDS011;47518;51.776;9.370;2023-03-15T03:32:38;5.95;;;3.33;;
61617;SDS011;47518;51.776;9.370;2023-03-15T03:35:05;5.70;;;3.10;;
61617;SDS011;47518;51.776;9.370;2023-03-15T03:37:31;6.85;;;3.00;;
61617;SDS011;47518;51.776;9.370;2023-03-15T03:39:57;6.70;;;3.13;;
61617;SDS011;47518;51.776;9.370;2023-03-15T03:42:23;5.43;;;3.20;;
61617;SDS011;47518;51.776;9.370;2023-03-15T03:44:51;6.22;;;3.40;;
61617;SDS011;47518;51.776;9.370;2023-03-15T03:47:19;5.47;;;3.58;;
61617;SDS011;47518;51.776;9.370;2023-03-15T03:49:45;7.20;;;3.35;;
61617;SDS011;47518;51.776;9.370;2023-03-15T03:52:10;6.60;;;3.35;;
61617;SDS011;47518;51.776;9.370;2023-03-15T03:54:36;3.75;;;3.28;;
61617;SDS011;47518;51.776;9.370;2023-03-15T03:57:04;4.47;;;3.03;;
61617;SDS011;47518;51.776;9.370;2023-03-15T03:59:33;4.38;;;2.90;;
61617;SDS011;47518;51.776;9.370;2023-03-15T04:01:59;6.43;;;3.28;;
61617;SDS011;47518;51.776;9.370;2023-03-15T04:04:29;3.72;;;3.10;;
61617;SDS011;47518;51.776;9.370;2023-03-15T04:07:13;7.68;;;3.50;;
61617;SDS011;47518;51.776;9.370;2023-03-15T04:09:42;4.88;;;3.20;;
61617;SDS011;47518;51.776;9.370;2023-03-15T04:12:10;4.88;;;3.30;;
61617;SDS011;47518;51.776;9.370;2023-03-15T04:14:36;4.82;;;3.50;;
61617;SDS011;47518;51.776;9.370;2023-03-15T04:17:01;5.00;;;3.83;;
61617;SDS011;47518;51.776;9.370;2023-03-15T04:19:33;5.57;;;4.18;;
61617;SDS011;47518;51.776;9.370;2023-03-15T04:22:02;5.72;;;4.05;;
61617;SDS011;47518;51.776;9.370;2023-03-15T04:24:32;5.00;;;3.92;;
61617;SDS011;47518;51.776;9.370;2023-03-15T04:27:01;6.28;;;4.30;;
61617;SDS011;47518;51.776;9.370;2023-03-15T04:29:30;5.13;;;4.03;;
61617;SDS011;47518;51.776;9.370;2023-03-15T04:31:56;11.13;;;6.32;;
61617;SDS011;47518;51.776;9.370;2023-03-15T04:34:28;8.40;;;6.70;;
61617;SDS011;47518;51.776;9.370;2023-03-15T04:37:09;7.38;;;6.60;;
61617;SDS011;47518;51.776;9.370;2023-03-15T04:39:37;7.50;;;6.70;;
61617;SDS011;47518;51.776;9.370;2023-03-15T04:42:03;7.78;;;6.97;;
61617;SDS011;47518;51.776;9.370;2023-03-15T04:44:28;8.65;;;6.78;;
61617;SDS011;47518;51.776;9.370;2023-03-15T04:46:57;8.07;;;7.28;;
61617;SDS011;47518;51.776;9.370;2023-03-15T04:49:28;9.48;;;6.93;;
61617;SDS011;47518;51.776;9.370;2023-03-15T04:51:53;8.32;;;7.47;;
61617;SDS011;47518;51.776;9.370;2023-03-15T04:54:25;10.93;;;7.82;;
61617;SDS011;47518;51.776;9.370;2023-03-15T04:57:06;8.90;;;8.00;;
61617;SDS011;47518;51.776;9.370;2023-03-15T04:59:32;9.35;;;7.70;;
61617;SDS011;47518;51.776;9.370;2023-03-15T05:01:57;9.73;;;7.70;;
61617;SDS011;47518;51.776;9.370;2023-03-15T05:04:23;9.95;;;8.05;;
61617;SDS011;47518;51.776;9.370;2023-03-15T05:09:38;11.27;;;8.40;;
61617;SDS011;47518;51.776;9.370;2023-03-15T05:12:04;9.65;;;8.20;;
61617;SDS011;47518;51.776;9.370;2023-03-15T05:14:30;10.68;;;8.45;;
61617;SDS011;47518;51.776;9.370;2023-03-15T05:16:56;11.40;;;8.98;;
61617;SDS011;47518;51.776;9.370;2023-03-15T05:19:39;12.52;;;8.52;;
61617;SDS011;47518;51.776;9.370;2023-03-15T05:22:05;11.93;;;9.27;;
61617;SDS011;47518;51.776;9.370;2023-03-15T05:24:31;13.02;;;9.10;;
61617;SDS011;47518;51.776;9.370;2023-03-15T05:27:00;11.57;;;8.98;;
61617;SDS011;47518;51.776;9.370;2023-03-15T05:29:36;13.98;;;9.85;;
61617;SDS011;47518;51.776;9.370;2023-03-15T05:32:02;12.75;;;9.63;;
61617;SDS011;47518;51.776;9.370;2023-03-15T05:34:29;12.98;;;10.23;;
61617;SDS011;47518;51.776;9.370;2023-03-15T05:37:14;13.10;;;9.15;;
61617;SDS011;47518;51.776;9.370;2023-03-15T05:39:40;15.07;;;9.40;;
61617;SDS011;47518;51.776;9.370;2023-03-15T05:42:06;13.57;;;9.35;;
61617;SDS011;47518;51.776;9.370;2023-03-15T05:44:32;13.77;;;8.57;;
61617;SDS011;47518;51.776;9.370;2023-03-15T05:46:57;12.65;;;9.18;;
61617;SDS011;47518;51.776;9.370;2023-03-15T05:49:43;11.90;;;8.60;;
61617;SDS011;47518;51.776;9.370;2023-03-15T05:52:12;13.23;;;9.30;;
61617;SDS011;47518;51.776;9.370;2023-03-15T05:54:37;11.52;;;8.95;;
61617;SDS011;47518;51.776;9.370;2023-03-15T05:57:06;13.73;;;9.02;;
61617;SDS011;47518;51.776;9.370;2023-03-15T05:59:35;13.23;;;9.13;;
61617;SDS011;47518;51.776;9.370;2023-03-15T06:02:05;13.60;;;8.98;;
61617;SDS011;47518;51.776;9.370;2023-03-15T06:04:30;14.40;;;9.35;;
61617;SDS011;47518;51.776;9.370;2023-03-15T06:07:17;13.02;;;8.85;;
61617;SDS011;47518;51.776;9.370;2023-03-15T06:56:58;9.25;;;6.35;;
61617;SDS011;47518;51.776;9.370;2023-03-15T06:59:01;8.35;;;6.00;;
61617;SDS011;47518;51.776;9.370;2023-03-15T07:01:34;8.55;;;6.25;;
61617;SDS011;47518;51.776;9.370;2023-03-15T08:50:41;6.13;;;5.28;;
61617;SDS011;47518;51.776;9.370;2023-03-15T08:53:07;6.80;;;5.10;;
61617;SDS011;47518;51.776;9.370;2023-03-15T08:55:54;10.73;;;5.43;;
61617;SDS011;47518;51.776;9.370;2023-03-15T08:58:25;9.30;;;5.47;;
61617;SDS011;47518;51.776;9.370;2023-03-15T09:00:55;9.55;;;5.30;;
61617;SDS011;47518;51.776;9.370;2023-03-15T09:03:30;10.35;;;5.63;;
61617;SDS011;47518;51.776;9.370;2023-03-15T09:09:35;9.45;;;5.30;;
61617;SDS011;47518;51.776;9.370;2023-03-15T09:12:20;9.52;;;5.10;;
61617;SDS011;47518;51.776;9.370;2023-03-15T09:15:07;9.55;;;5.15;;
61617;SDS011;47518;51.776;9.370;2023-03-15T09:21:24;9.13;;;5.13;;
61617;SDS011;47518;51.776;9.370;2023-03-15T09:24:04;8.85;;;5.00;;
61617;SDS011;47518;51.776;9.370;2023-03-15T09:30:21;7.78;;;4.60;;
61617;SDS011;47518;51.776;9.370;2023-03-15T09:32:53;6.45;;;4.45;;
61617;SDS011;47518;51.776;9.370;2023-03-15T09:50:43;10.73;;;4.75;;
61617;SDS011;47518;51.776;9.370;2023-03-15T09:54:01;7.88;;;4.75;;
61617;SDS011;47518;51.776;9.370;2023-03-15T09:57:22;9.90;;;4.72;;
61617;SDS011;47518;51.776;9.370;2023-03-15T10:03:04;8.63;;;4.13;;
61617;SDS011;47518;51.776;9.370;2023-03-15T10:12:33;8.90;;;4.60;;
61617;SDS011;47518;51.776;9.370;2023-03-15T10:33:00;10.38;;;4.30;;
61617;SDS011;47518;51.776;9.370;2023-03-15T10:55:04;7.18;;;3.30;;
61617;SDS011;47518;51.776;9.370;2023-03-15T10:58:24;5.05;;;3.30;;
61617;SDS011;47518;51.776;9.370;2023-03-15T11:04:24;5.30;;;3.70;;
61617;SDS011;47518;51.776;9.370;2023-03-15T11:17:19;7.20;;;3.60;;
61617;SDS011;47518;51.776;9.370;2023-03-15T11:20:18;5.47;;;3.47;;
61617;SDS011;47518;51.776;9.370;2023-03-15T11:23:18;5.60;;;3.30;;
61617;SDS011;47518;51.776;9.370;2023-03-15T11:26:26;5.32;;;3.53;;
61617;SDS011;47518;51.776;9.370;2023-03-15T11:29:00;6.32;;;3.55;;
61617;SDS011;47518;51.776;9.370;2023-03-15T11:31:35;4.80;;;3.40;;
61617;SDS011;47518;51.776;9.370;2023-03-15T11:34:08;8.57;;;3.50;;
61617;SDS011;47518;51.776;9.370;2023-03-15T11:37:08;7.68;;;3.40;;
61617;SDS011;47518;51.776;9.370;2023-03-15T11:43:26;6.30;;;3.20;;
61617;SDS011;47518;51.776;9.370;2023-03-15T11:46:43;5.82;;;3.30;;
61617;SDS011;47518;51.776;9.370;2023-03-15T11:57:02;7.15;;;3.10;;
61617;SDS011;47518;51.776;9.370;2023-03-15T12:00:17;6.60;;;2.90;;
61617;SDS011;47518;51.776;9.370;2023-03-15T12:02:54;6.57;;;3.10;;
61617;SDS011;47518;51.776;9.370;2023-03-15T12:57:44;6.60;;;3.20;;
61617;SDS011;47518;51.776;9.370;2023-03-15T13:00:14;6.60;;;2.90;;
61617;SDS011;47518;51.776;9.370;2023-03-15T13:02:44;5.93;;;2.90;;
61617;SDS011;47518;51.776;9.370;2023-03-15T13:05:17;5.88;;;3.05;;
61617;SDS011;47518;51.776;9.370;2023-03-15T13:08:06;4.85;;;3.20;;
61617;SDS011;47518;51.776;9.370;2023-03-15T13:10:46;5.30;;;2.95;;
61617;SDS011;47518;51.776;9.370;2023-03-15T13:13:31;9.65;;;3.70;;
61617;SDS011;47518;51.776;9.370;2023-03-15T13:16:32;3.70;;;2.40;;
61617;SDS011;47518;51.776;9.370;2023-03-15T13:19:21;6.78;;;3.22;;
61617;SDS011;47518;51.776;9.370;2023-03-15T13:21:59;3.55;;;2.65;;
61617;SDS011;47518;51.776;9.370;2023-03-15T13:40:46;4.18;;;2.60;;
61617;SDS011;47518;51.776;9.370;2023-03-15T13:43:12;2.75;;;2.45;;
61617;SDS011;47518;51.776;9.370;2023-03-15T13:45:40;4.97;;;2.70;;
61617;SDS011;47518;51.776;9.370;2023-03-15T13:48:07;3.40;;;2.50;;
61617;SDS011;47518;51.776;9.370;2023-03-15T13:50:54;2.78;;;2.45;;
61617;SDS011;47518;51.776;9.370;2023-03-15T13:53:44;4.68;;;2.60;;
61617;SDS011;47518;51.776;9.370;2023-03-15T13:58:46;3.67;;;2.75;;
61617;SDS011;47518;51.776;9.370;2023-03-15T14:01:29;3.78;;;2.83;;
61617;SDS011;47518;51.776;9.370;2023-03-15T14:04:05;3.38;;;2.70;;
61617;SDS011;47518;51.776;9.370;2023-03-15T14:06:43;5.43;;;3.22;;
61617;SDS011;47518;51.776;9.370;2023-03-15T14:09:17;2.90;;;2.60;;
61617;SDS011;47518;51.776;9.370;2023-03-15T14:11:45;2.83;;;2.40;;
61617;SDS011;47518;51.776;9.370;2023-03-15T14:14:30;3.15;;;2.50;;
61617;SDS011;47518;51.776;9.370;2023-03-15T14:17:05;2.70;;;2.50;;
61617;SDS011;47518;51.776;9.370;2023-03-15T14:19:52;4.18;;;2.58;;
61617;SDS011;47518;51.776;9.370;2023-03-15T14:22:19;5.13;;;2.53;;
61617;SDS011;47518;51.776;9.370;2023-03-15T14:24:46;2.88;;;2.42;;
61617;SDS011;47518;51.776;9.370;2023-03-15T14:27:24;5.68;;;2.80;;
61617;SDS011;47518;51.776;9.370;2023-03-15T14:29:55;2.92;;;2.50;;
61617;SDS011;47518;51.776;9.370;2023-03-15T14:32:27;3.33;;;2.60;;
61617;SDS011;47518;51.776;9.370;2023-03-15T14:38:14;3.20;;;2.33;;
61617;SDS011;47518;51.776;9.370;2023-03-15T14:40:43;5.95;;;2.42;;
61617;SDS011;47518;51.776;9.370;2023-03-15T14:43:09;9.07;;;2.70;;
61617;SDS011;47518;51.776;9.370;2023-03-15T14:45:35;3.67;;;2.30;;
61617;SDS011;47518;51.776;9.370;2023-03-15T15:03:45;3.28;;;2.30;;
61617;SDS011;47518;51.776;9.370;2023-03-15T15:06:14;5.65;;;2.63;;
61617;SDS011;47518;51.776;9.370;2023-03-15T15:08:44;2.40;;;2.20;;
61617;SDS011;47518;51.776;9.370;2023-03-15T15:11:11;5.82;;;2.58;;
61617;SDS011;47518;51.776;9.370;2023-03-15T15:13:39;3.55;;;2.40;;
61617;SDS011;47518;51.776;9.370;2023-03-15T15:16:14;2.55;;;2.20;;
61617;SDS011;47518;51.776;9.370;2023-03-15T15:18:40;5.28;;;2.67;;
61617;SDS011;47518;51.776;9.370;2023-03-15T15:21:10;3.83;;;2.47;;
61617;SDS011;47518;51.776;9.370;2023-03-15T15:23:39;2.60;;;2.17;;
61617;SDS011;47518;51.776;9.370;2023-03-15T15:49:36;2.90;;;2.60;;
61617;SDS011;47518;51.776;9.370;2023-03-15T15:52:04;6.63;;;2.97;;
61617;SDS011;47518;51.776;9.370;2023-03-15T15:54:33;5.15;;;2.75;;
61617;SDS011;47518;51.776;9.370;2023-03-15T15:57:08;4.18;;;2.65;;
61617;SDS011;47518;51.776;9.370;2023-03-15T15:59:35;4.15;;;2.83;;
61617;SDS011;47518;51.776;9.370;2023-03-15T16:02:02;5.15;;;2.58;;
61617;SDS011;47518;51.776;9.370;2023-03-15T16:04:27;4.18;;;2.50;;
61617;SDS011;47518;51.776;9.370;2023-03-15T16:06:55;3.90;;;3.00;;
61617;SDS011;47518;51.776;9.370;2023-03-15T16:09:34;7.30;;;2.50;;
61617;SDS011;47518;51.776;9.370;2023-03-15T16:12:02;5.35;;;2.75;;
61617;SDS011;47518;51.776;9.370;2023-03-15T16:14:34;3.92;;;2.58;;
61617;SDS011;47518;51.776;9.370;2023-03-15T16:17:00;3.22;;;2.50;;
61617;SDS011;47518;51.776;9.370;2023-03-15T16:19:25;4.60;;;2.30;;
61617;SDS011;47518;51.776;9.370;2023-03-15T16:21:51;4.53;;;2.40;;
61617;SDS011;47518;51.776;9.370;2023-03-15T16:37:25;2.35;;;2.15;;
61617;SDS011;47518;51.776;9.370;2023-03-15T16:39:53;3.28;;;2.30;;
61617;SDS011;47518;51.776;9.370;2023-03-15T16:42:36;2.25;;;2.10;;
61617;SDS011;47518;51.776;9.370;2023-03-15T16:45:10;8.15;;;2.70;;
61617;SDS011;47518;51.776;9.370;2023-03-15T16:47:51;5.97;;;2.50;;
61617;SDS011;47518;51.776;9.370;2023-03-15T16:50:26;6.70;;;3.10;;
61617;SDS011;47518;51.776;9.370;2023-03-15T16:53:08;8.02;;;3.50;;
61617;SDS011;47518;51.776;9.370;2023-03-15T16:55:44;5.45;;;3.47;;
61617;SDS011;47518;51.776;9.370;2023-03-15T16:58:14;4.25;;;2.85;;
61617;SDS011;47518;51.776;9.370;2023-03-15T17:00:49;3.35;;;2.80;;
61617;SDS011;47518;51.776;9.370;2023-03-15T17:03:18;4.90;;;2.60;;
61617;SDS011;47518;51.776;9.370;2023-03-15T17:05:48;4.15;;;2.60;;
61617;SDS011;47518;51.776;9.370;2023-03-15T17:08:26;3.85;;;2.75;;
61617;SDS011;47518;51.776;9.370;2023-03-15T17:10:52;4.97;;;2.88;;
61617;SDS011;47518;51.776;9.370;2023-03-15T17:13:25;3.45;;;2.85;;
61617;SDS011;47518;51.776;9.370;2023-03-15T17:15:54;3.90;;;3.40;;
61617;SDS011;47518;51.776;9.370;2023-03-15T17:18:19;4.13;;;2.92;;
61617;SDS011;47518;51.776;9.370;2023-03-15T17:20:47;7.28;;;3.10;;
61617;SDS011;47518;51.776;9.370;2023-03-15T17:23:16;7.00;;;3.10;;
61617;SDS011;47518;51.776;9.370;2023-03-15T17:25:44;4.57;;;2.72;;
61617;SDS011;47518;51.776;9.370;2023-03-15T17:28:12;4.72;;;2.75;;
61617;SDS011;47518;51.776;9.370;2023-03-15T17:30:41;6.18;;;3.20;;
61617;SDS011;47518;51.776;9.370;2023-03-15T17:33:07;3.80;;;2.90;;
61617;SDS011;47518;51.776;9.370;2023-03-15T17:35:34;3.42;;;2.88;;
61617;SDS011;47518;51.776;9.370;2023-03-15T17:38:14;6.45;;;3.53;;
61617;SDS011;47518;51.776;9.370;2023-03-15T17:40:51;10.48;;;3.58;;
61617;SDS011;47518;51.776;9.370;2023-03-15T17:43:23;5.82;;;2.80;;
61617;SDS011;47518;51.776;9.370;2023-03-15T17:45:51;4.30;;;2.90;;
61617;SDS011;47518;51.776;9.370;2023-03-15T17:48:19;6.32;;;3.85;;
61617;SDS011;47518;51.776;9.370;2023-03-15T17:50:45;7.78;;;3.58;;
61617;SDS011;47518;51.776;9.370;2023-03-15T17:53:13;10.65;;;4.60;;
61617;SDS011;47518;51.776;9.370;2023-03-15T17:55:53;7.13;;;4.25;;
61617;SDS011;47518;51.776;9.370;2023-03-15T17:58:20;9.50;;;4.80;;
61617;SDS011;47518;51.776;9.370;2023-03-15T18:00:47;8.75;;;4.22;;
61617;SDS011;47518;51.776;9.370;2023-03-15T18:03:16;5.05;;;3.22;;
61617;SDS011;47518;51.776;9.370;2023-03-15T18:05:45;6.50;;;3.40;;
61617;SDS011;47518;51.776;9.370;2023-03-15T18:08:12;8.05;;;4.05;;
61617;SDS011;47518;51.776;9.370;2023-03-15T18:10:42;11.40;;;4.10;;
61617;SDS011;47518;51.776;9.370;2023-03-15T18:13:19;4.55;;;3.30;;
61617;SDS011;47518;51.776;9.370;2023-03-15T18:15:45;5.47;;;3.10;;
61617;SDS011;47518;51.776;9.370;2023-03-15T18:18:19;7.95;;;3.35;;
61617;SDS011;47518;51.776;9.370;2023-03-15T18:20:52;6.43;;;3.70;;
61617;SDS011;47518;51.776;9.370;2023-03-15T18:23:19;6.68;;;3.47;;
61617;SDS011;47518;51.776;9.370;2023-03-15T18:25:45;5.00;;;3.65;;
61617;SDS011;47518;51.776;9.370;2023-03-15T18:28:14;5.75;;;3.72;;
61617;SDS011;47518;51.776;9.370;2023-03-15T18:30:39;8.85;;;3.60;;
61617;SDS011;47518;51.776;9.370;2023-03-15T18:33:16;7.07;;;3.90;;
61617;SDS011;47518;51.776;9.370;2023-03-15T18:35:44;9.85;;;5.28;;
61617;SDS011;47518;51.776;9.370;2023-03-15T18:38:09;11.80;;;5.60;;
61617;SDS011;47518;51.776;9.370;2023-03-15T18:40:42;18.48;;;10.63;;
61617;SDS011;47518;51.776;9.370;2023-03-15T18:43:10;28.40;;;14.52;;
61617;SDS011;47518;51.776;9.370;2023-03-15T18:45:40;16.58;;;10.13;;
61617;SDS011;47518;51.776;9.370;2023-03-15T18:48:06;17.80;;;7.18;;
61617;SDS011;47518;51.776;9.370;2023-03-15T18:50:32;11.88;;;6.85;;
61617;SDS011;47518;51.776;9.370;2023-03-15T18:53:00;11.00;;;6.63;;
61617;SDS011;47518;51.776;9.370;2023-03-15T18:55:27;10.02;;;6.97;;
61617;SDS011;47518;51.776;9.370;2023-03-15T18:57:53;12.77;;;7.65;;
61617;SDS011;47518;51.776;9.370;2023-03-15T19:00:21;11.93;;;7.40;;
61617;SDS011;47518;51.776;9.370;2023-03-15T19:16:04;16.85;;;9.77;;
61617;SDS011;47518;51.776;9.370;2023-03-15T19:18:29;16.70;;;10.05;;
61617;SDS011;47518;51.776;9.370;2023-03-15T19:20:56;15.70;;;9.98;;
61617;SDS011;47518;51.776;9.370;2023-03-15T19:23:22;23.23;;;12.02;;
61617;SDS011;47518;51.776;9.370;2023-03-15T19:25:48;18.13;;;10.68;;
61617;SDS011;47518;51.776;9.370;2023-03-15T19:28:14;23.45;;;13.20;;
61617;SDS011;47518;51.776;9.370;2023-03-15T19:30:40;22.70;;;12.48;;
61617;SDS011;47518;51.776;9.370;2023-03-15T19:33:06;18.63;;;10.35;;
61617;SDS011;47518;51.776;9.370;2023-03-15T19:35:31;20.75;;;11.25;;
61617;SDS011;47518;51.776;9.370;2023-03-15T19:37:57;21.38;;;11.82;;
61617;SDS011;47518;51.776;9.370;2023-03-15T19:40:29;19.42;;;10.85;;
61617;SDS011;47518;51.776;9.370;2023-03-15T19:43:03;23.35;;;12.43;;
61617;SDS011;47518;51.776;9.370;2023-03-15T19:45:32;26.52;;;12.90;;
61617;SDS011;47518;51.776;9.370;2023-03-15T19:47:58;44.97;;;21.88;;
61617;SDS011;47518;51.776;9.370;2023-03-15T19:50:23;38.45;;;19.40;;
61617;SDS011;47518;51.776;9.370;2023-03-15T19:52:49;40.28;;;20.23;;
61617;SDS011;47518;51.776;9.370;2023-03-15T19:55:19;33.63;;;17.10;;
61617;SDS011;47518;51.776;9.370;2023-03-15T19:57:50;35.85;;;17.00;;
61617;SDS011;47518;51.776;9.370;2023-03-15T20:00:20;27.48;;;13.95;;
61617;SDS011;47518;51.776;9.370;2023-03-15T20:02:49;23.85;;;13.20;;
61617;SDS011;47518;51.776;9.370;2023-03-15T20:05:22;24.33;;;12.93;;
61617;SDS011;47518;51.776;9.370;2023-03-15T20:07:49;17.50;;;10.80;;
61617;SDS011;47518;51.776;9.370;2023-03-15T20:10:18;17.75;;;9.85;;
61617;SDS011;47518;51.776;9.370;2023-03-15T20:12:44;16.27;;;9.55;;
61617;SDS011;47518;51.776;9.370;2023-03-15T20:15:14;16.45;;;9.10;;
61617;SDS011;47518;51.776;9.370;2023-03-15T20:17:43;15.50;;;8.95;;
61617;SDS011;47518;51.776;9.370;2023-03-15T20:20:11;15.02;;;8.80;;
61617;SDS011;47518;51.776;9.370;2023-03-15T20:22:39;14.98;;;7.78;;
61617;SDS011;47518;51.776;9.370;2023-03-15T20:25:07;13.02;;;7.80;;
61617;SDS011;47518;51.776;9.370;2023-03-15T20:27:34;13.95;;;7.43;;
61617;SDS011;47518;51.776;9.370;2023-03-15T20:30:10;12.63;;;8.45;;
61617;SDS011;47518;51.776;9.370;2023-03-15T20:32:40;19.80;;;9.18;;
61617;SDS011;47518;51.776;9.370;2023-03-15T20:35:07;16.33;;;9.18;;
61617;SDS011;47518;51.776;9.370;2023-03-15T20:37:36;13.50;;;9.30;;
61617;SDS011;47518;51.776;9.370;2023-03-15T20:40:06;14.55;;;9.23;;
61617;SDS011;47518;51.776;9.370;2023-03-15T20:42:33;16.10;;;9.50;;
61617;SDS011;47518;51.776;9.370;2023-03-15T20:45:08;14.25;;;9.30;;
61617;SDS011;47518;51.776;9.370;2023-03-15T20:47:37;16.25;;;9.70;;
61617;SDS011;47518;51.776;9.370;2023-03-15T20:50:09;18.50;;;12.07;;
61617;SDS011;47518;51.776;9.370;2023-03-15T20:52:35;18.13;;;10.80;;
61617;SDS011;47518;51.776;9.370;2023-03-15T20:55:01;15.60;;;10.23;;
61617;SDS011;47518;51.776;9.370;2023-03-15T20:57:33;18.17;;;11.02;;
61617;SDS011;47518;51.776;9.370;2023-03-15T21:00:05;19.10;;;10.95;;
61617;SDS011;47518;51.776;9.370;2023-03-15T21:02:42;18.98;;;11.30;;
61617;SDS011;47518;51.776;9.370;2023-03-15T21:05:18;18.35;;;9.93;;
61617;SDS011;47518;51.776;9.370;2023-03-15T21:07:44;24.58;;;13.57;;
61617;SDS011;47518;51.776;9.370;2023-03-15T21:10:21;22.17;;;12.98;;
61617;SDS011;47518;51.776;9.370;2023-03-15T21:12:46;23.30;;;12.48;;
61617;SDS011;47518;51.776;9.370;2023-03-15T21:15:12;16.15;;;9.68;;
61617;SDS011;47518;51.776;9.370;2023-03-15T21:17:41;17.00;;;9.77;;
61617;SDS011;47518;51.776;9.370;2023-03-15T21:20:08;16.98;;;10.85;;
61617;SDS011;47518;51.776;9.370;2023-03-15T21:22:35;15.27;;;8.75;;
61617;SDS011;47518;51.776;9.370;2023-03-15T21:25:01;14.57;;;8.40;;
61617;SDS011;47518;51.776;9.370;2023-03-15T21:27:27;14.80;;;8.98;;
61617;SDS011;47518;51.776;9.370;2023-03-15T21:29:52;14.38;;;8.38;;
61617;SDS011;47518;51.776;9.370;2023-03-15T21:32:18;16.20;;;8.75;;
61617;SDS011;47518;51.776;9.370;2023-03-15T21:34:46;13.75;;;7.70;;
61617;SDS011;47518;51.776;9.370;2023-03-15T21:37:11;15.07;;;8.07;;
61617;SDS011;47518;51.776;9.370;2023-03-15T21:39:36;13.57;;;7.82;;
61617;SDS011;47518;51.776;9.370;2023-03-15T21:42:05;12.63;;;8.20;;
61617;SDS011;47518;51.776;9.370;2023-03-15T21:44:30;13.77;;;7.70;;
61617;SDS011;47518;51.776;9.370;2023-03-15T21:47:00;12.25;;;7.80;;
61617;SDS011;47518;51.776;9.370;2023-03-15T21:49:29;12.97;;;9.03;;
61617;SDS011;47518;51.776;9.370;2023-03-15T21:51:57;15.00;;;8.95;;
61617;SDS011;47518;51.776;9.370;2023-03-15T21:54:23;17.10;;;9.80;;
61617;SDS011;47518;51.776;9.370;2023-03-15T21:56:49;16.00;;;9.25;;
61617;SDS011;47518;51.776;9.370;2023-03-15T21:59:21;13.43;;;8.38;;
61617;SDS011;47518;51.776;9.370;2023-03-15T22:01:52;14.30;;;7.30;;
61617;SDS011;47518;51.776;9.370;2023-03-15T22:04:19;15.77;;;7.35;;
61617;SDS011;47518;51.776;9.370;2023-03-15T22:06:45;13.77;;;7.57;;